Tropical Cyclones
[Index]
Main Index Home Page Stock Weather Photos Extreme Storms Discussion Storm News and Storm Chasing Reports Tropical Cyclones / Hurricanes / Typhoons Weather Data and Links Wild Fires / Bushfires Weather Observation Techniques Weather Picture Catalogue Tornado Pictures and Reports Stock Video Footage and DVDs for sale
Season 2007-2008 Tropical Cyclone FUNA Track Map
Season 2007-2008 Summaries: [BoM-AU] [JTWC-AU] [JTWC-SIO] [JTWC-SPAC] [JTWC-SH]
<<- Previous TC | JTWC 2007-2008 Season | Next TC ->>

click for intensity scale information  Lat/long Grid: Show Hide

 Date Labels: Show Hide

Joint Typhoon Warning Centre Cyclone Data

Name: FUNA

15 Jan 2008 12:00 UTC to 21 Jan 2008 00:00 UTC

    date/time    lat    long     hPa   cat  kts
2008-01-15 12   15.4   162.8    1007         20          
2008-01-15 18   15.4   163.1    1004         25          
2008-01-16 00   15.3   163.7    1000         30          
2008-01-16 06   15.0   164.6     996         35          
2008-01-16 12   14.8   165.7     989    1    45          
2008-01-16 18   14.9   167.1     982    2    55          
2008-01-16 18   14.9   167.1     982    2    55          
2008-01-17 00   15.1   168.2     982    2    55          
2008-01-17 00   15.1   168.2     982    2    55          
2008-01-17 06   15.5   169.2     978    2    60          
2008-01-17 06   15.5   169.2     978    2    60          
2008-01-17 12   16.0   170.3     974    2    65          
2008-01-17 12   16.0   170.3     974    2    65          
2008-01-17 18   16.7   171.3     970    2    70          
2008-01-17 18   16.7   171.3     970    2    70          
2008-01-17 18   16.7   171.3     970    2    70          
2008-01-18 00   17.4   172.2     967    3    75          
2008-01-18 00   17.4   172.2     967    3    75          
2008-01-18 00   17.4   172.2     967    3    75          
2008-01-18 06   18.2   173.0     963    3    80          
2008-01-18 06   18.2   173.0     963    3    80          
2008-01-18 06   18.2   173.0     963    3    80          
2008-01-18 12   18.8   173.6     956    3    90          
2008-01-18 12   18.8   173.6     956    3    90          
2008-01-18 12   18.8   173.6     956    3    90          
2008-01-18 18   19.8   174.2     944    4   105          
2008-01-18 18   19.8   174.2     944    4   105          
2008-01-18 18   19.8   174.2     944    4   105          
2008-01-19 00   21.0   174.7     944    4   105          
2008-01-19 00   21.0   174.7     944    4   105          
2008-01-19 00   21.0   174.7     944    4   105          
2008-01-19 06   22.3   175.2     944    4   105          
2008-01-19 06   22.3   175.2     944    4   105          
2008-01-19 06   22.3   175.2     944    4   105          
2008-01-19 12   24.0   175.5     952    3    95          
2008-01-19 12   24.0   175.5     952    3    95          
2008-01-19 12   24.0   175.5     952    3    95          
2008-01-19 18   26.1   175.0     967    3    75          
2008-01-19 18   26.1   175.0     967    3    75          
2008-01-19 18   26.1   175.0     967    3    75          
2008-01-20 00   28.1   173.5     970    2    70          
2008-01-20 00   28.1   173.5     970    2    70          
2008-01-20 00   28.1   173.5     970    2    70          
2008-01-20 06   29.0   171.3     982    2    55          
2008-01-20 06   29.0   171.3     982    2    55          
2008-01-20 12   30.1   170.1     993    1    40          
2008-01-20 18   31.5   168.9    1000         30          
2008-01-21 00   33.1   167.9    1000         30          
Winds are 1-min average.

Tropical cyclone tracks developed by Michael Bath using data from the Joint Typhoon Warning Centre Best Tracks and Google Maps.


[Australian Severe Weather index] [Copyright Notice] [Email Contacts] [Search This Site] [Privacy Policy]
Document: tropical_cyclone_funa.htm Updated: 28 June 2017